Time;durP1;ratioP1;P1;durP2;ratioP2;P2;SDS_P1;SDS_P2;PMS_P1;PMS_P2;Temp;Humidity;BMP_temperature;BMP_pressure;BME280_temperature;BME280_humidity;BME280_pressure;Samples;Min_cycle;Max_cycle;Signal;HPM_P1;HPM_P2
2022/06/24 00:01:57;;;;;;;3.37;1.10;;;;;;;17.45;100.00;98093.88;4953846;29;20220;-48
2022/06/24 00:04:25;;;;;;;7.18;1.40;;;;;;;17.43;100.00;98093.28;4947685;28;20462;-49
2022/06/24 00:06:53;;;;;;;8.33;1.63;;;;;;;17.42;100.00;98087.16;4948846;28;20221;-49
2022/06/24 00:09:20;;;;;;;6.00;1.50;;;;;;;17.37;100.00;98090.44;4933849;28;20226;-49
2022/06/24 00:12:03;;;;;;;4.03;1.27;;;;;;;17.32;100.00;98084.97;4945747;28;20197;-49
2022/06/24 00:14:31;;;;;;;4.73;1.40;;;;;;;17.32;100.00;98090.25;4949432;28;20282;-49
2022/06/24 00:17:01;;;;;;;4.87;1.60;;;;;;;17.30;100.00;98088.81;4949607;28;20220;-49
2022/06/24 00:19:30;;;;;;;4.60;1.70;;;;;;;17.28;100.00;98083.78;4955588;28;20196;-49
2022/06/24 00:22:05;;;;;;;5.53;2.07;;;;;;;17.22;100.00;98080.13;4966035;28;20193;-49
2022/06/24 00:24:33;;;;;;;4.07;1.77;;;;;;;17.25;100.00;98084.19;4945167;28;20216;-49
2022/06/24 00:27:02;;;;;;;6.03;1.67;;;;;;;17.23;100.00;98071.19;4942946;28;20219;-49
2022/06/24 00:29:32;;;;;;;7.43;2.20;;;;;;;17.22;100.00;98077.50;4943448;29;20198;-50
2022/06/24 00:32:07;;;;;;;8.67;2.07;;;;;;;17.24;100.00;98072.81;4931102;29;20205;-51
2022/06/24 00:34:35;;;;;;;4.47;1.93;;;;;;;17.20;100.00;98068.97;4953873;29;20189;-51
2022/06/24 00:37:27;;;;;;;5.95;2.17;;;;;;;17.17;100.00;98066.75;4954034;28;20444;-49
2022/06/24 00:39:56;;;;;;;5.80;2.10;;;;;;;17.18;100.00;98065.72;4947944;29;20284;-49
2022/06/24 00:42:26;;;;;;;8.57;2.57;;;;;;;17.17;100.00;98061.47;4957866;28;20197;-49
2022/06/24 00:45:02;;;;;;;8.10;2.83;;;;;;;17.13;100.00;98070.81;4972706;28;20259;-49
2022/06/24 00:47:31;;;;;;;7.97;2.40;;;;;;;17.14;100.00;98082.97;4957574;28;20303;-49
2022/06/24 00:50:03;;;;;;;5.50;2.00;;;;;;;17.14;100.00;98082.19;4957654;29;20208;-49
2022/06/24 00:52:30;;;;;;;7.80;2.47;;;;;;;17.15;100.00;98084.59;4957919;29;20745;-49
2022/06/24 00:54:58;;;;;;;4.90;2.30;;;;;;;17.06;100.00;98097.22;4957633;29;20296;-49
2022/06/24 00:57:26;;;;;;;6.43;2.37;;;;;;;17.04;100.00;98101.88;4957313;28;20300;-49
2022/06/24 00:59:55;;;;;;;8.90;2.40;;;;;;;16.99;100.00;98114.88;4957761;29;20247;-49
2022/06/24 01:02:23;;;;;;;7.37;3.00;;;;;;;16.97;100.00;98115.06;4957633;28;20639;-49
2022/06/24 01:04:50;;;;;;;9.30;2.17;;;;;;;16.96;100.00;98108.16;4957658;29;20280;-49
2022/06/24 01:07:17;;;;;;;12.73;2.60;;;;;;;16.93;100.00;98100.66;4957401;28;20209;-49
2022/06/24 01:09:45;;;;;;;7.10;2.40;;;;;;;16.94;100.00;98114.63;4972360;28;20561;-49
2022/06/24 01:12:12;;;;;;;7.80;2.37;;;;;;;16.90;100.00;98113.44;4957591;28;20188;-49
2022/06/24 01:14:41;;;;;;;7.43;2.70;;;;;;;16.87;100.00;98125.19;4938918;29;20204;-49
2022/06/24 01:17:08;;;;;;;6.37;2.47;;;;;;;16.83;100.00;98126.63;4951748;28;20707;-49
2022/06/24 01:19:35;;;;;;;8.63;2.40;;;;;;;16.81;100.00;98126.00;4956521;29;20193;-48
2022/06/24 01:22:03;;;;;;;7.00;2.37;;;;;;;16.84;100.00;98128.25;4954687;29;20204;-49
2022/06/24 01:24:30;;;;;;;4.63;2.40;;;;;;;16.81;100.00;98123.38;4956797;29;20276;-49
2022/06/24 01:26:59;;;;;;;6.53;2.30;;;;;;;16.76;100.00;98123.97;4957095;28;20223;-49
2022/06/24 01:29:26;;;;;;;6.87;2.53;;;;;;;16.75;100.00;98118.91;4948880;29;20195;-48
2022/06/24 01:32:11;;;;;;;8.10;2.33;;;;;;;16.76;100.00;98112.63;4956709;29;20223;-49
2022/06/24 01:34:39;;;;;;;4.13;2.00;;;;;;;16.74;100.00;98110.19;4939654;29;20201;-49
2022/06/24 01:37:07;;;;;;;7.53;2.37;;;;;;;16.73;100.00;98089.31;4956043;28;20227;-49
2022/06/24 01:39:34;;;;;;;7.70;2.33;;;;;;;16.64;100.00;98099.25;4956547;29;20198;-49
2022/06/24 01:42:01;;;;;;;5.30;2.43;;;;;;;16.57;100.00;98101.06;4956079;29;20200;-49
2022/06/24 01:44:28;;;;;;;7.10;2.13;;;;;;;16.51;100.00;98105.34;4955956;29;20612;-49
2022/06/24 01:46:54;;;;;;;4.13;2.30;;;;;;;16.50;100.00;98109.78;4956025;28;20928;-49
2022/06/24 01:49:21;;;;;;;6.07;2.50;;;;;;;16.49;100.00;98110.78;4955665;28;20203;-49
2022/06/24 01:51:52;;;;;;;9.37;2.03;;;;;;;16.47;100.00;98112.00;4957560;29;20196;-49
2022/06/24 01:54:20;;;;;;;9.60;2.50;;;;;;;16.42;100.00;98111.81;4958960;29;20193;-51
2022/06/24 01:56:47;;;;;;;5.90;2.70;;;;;;;16.28;100.00;98111.78;4959056;28;20717;-49
2022/06/24 01:59:15;;;;;;;4.80;2.43;;;;;;;16.26;100.00;98111.19;4942384;29;20203;-49
2022/06/24 02:01:43;;;;;;;12.63;3.07;;;;;;;16.25;100.00;98106.91;4959614;29;20196;-49
2022/06/24 02:04:10;;;;;;;5.23;2.67;;;;;;;16.21;100.00;98103.06;4957847;29;20321;-48
2022/06/24 02:06:37;;;;;;;7.63;3.03;;;;;;;16.19;100.00;98091.91;4957244;28;20215;-49
2022/06/24 02:09:04;;;;;;;8.17;2.97;;;;;;;16.07;100.00;98103.03;4956058;28;20215;-48
2022/06/24 02:14:18;;;;;;;7.33;2.50;;;;;;;16.01;100.00;98098.56;4956044;29;20210;-49
2022/06/24 02:16:46;;;;;;;7.53;2.80;;;;;;;15.90;100.00;98088.66;4954478;28;20227;-49
2022/06/24 02:19:13;;;;;;;6.50;2.33;;;;;;;15.88;100.00;98085.41;4959430;28;20616;-48
2022/06/24 02:21:40;;;;;;;9.00;3.13;;;;;;;15.81;100.00;98074.00;4937763;29;20203;-49
2022/06/24 02:24:07;;;;;;;13.67;2.50;;;;;;;15.73;100.00;98069.72;4938056;29;20231;-49
2022/06/24 02:26:36;;;;;;;11.70;2.80;;;;;;;15.71;100.00;98077.00;4955649;28;20623;-49
2022/06/24 02:29:03;;;;;;;7.37;2.80;;;;;;;15.68;100.00;98078.22;4955505;29;20210;-49
2022/06/24 02:31:30;;;;;;;10.73;2.80;;;;;;;15.72;100.00;98070.72;4955495;28;20208;-49
2022/06/24 02:33:58;;;;;;;9.53;2.93;;;;;;;15.70;100.00;98067.47;4955001;29;20203;-48
2022/06/24 02:36:25;;;;;;;9.87;3.00;;;;;;;15.68;100.00;98057.16;4945792;28;20273;-49
2022/06/24 02:38:52;;;;;;;5.50;2.73;;;;;;;15.67;100.00;98058.19;4954542;28;20626;-49
2022/06/24 02:41:19;;;;;;;6.90;3.10;;;;;;;15.64;100.00;98053.31;4955169;28;20854;-49
2022/06/24 02:43:47;;;;;;;8.67;3.07;;;;;;;15.68;100.00;98058.97;4961629;28;20212;-49
2022/06/24 02:46:17;;;;;;;10.37;3.70;;;;;;;15.62;100.00;98048.22;4956229;28;20246;-49
2022/06/24 02:48:44;;;;;;;11.37;2.93;;;;;;;15.63;100.00;98047.22;4955610;28;20202;-49
2022/06/24 02:51:15;;;;;;;6.40;2.80;;;;;;;15.58;100.00;98038.31;4955546;28;20208;-49
2022/06/24 02:53:43;;;;;;;10.50;3.37;;;;;;;15.56;100.00;98033.25;4938269;29;20188;-49
2022/06/24 02:56:12;;;;;;;8.40;3.30;;;;;;;15.55;100.00;98034.25;4954850;28;20210;-49
2022/06/24 02:58:40;;;;;;;12.47;4.33;;;;;;;15.53;100.00;98043.34;4955335;28;20206;-49
2022/06/24 03:01:10;;;;;;;12.20;3.57;;;;;;;15.58;100.00;98040.94;4954579;28;20277;-49
2022/06/24 03:03:37;;;;;;;7.10;3.17;;;;;;;15.47;100.00;98048.41;4955486;28;20710;-48
2022/06/24 03:06:06;;;;;;;9.10;3.13;;;;;;;15.48;100.00;98036.88;4954745;28;20199;-49
2022/06/24 03:08:33;;;;;;;10.43;3.47;;;;;;;15.52;100.00;98044.38;4954943;28;20197;-49
2022/06/24 03:11:01;;;;;;;10.07;3.70;;;;;;;15.49;100.00;98035.84;4949519;28;20211;-49
2022/06/24 03:13:28;;;;;;;13.27;3.43;;;;;;;15.48;100.00;98043.94;4954919;29;20469;-49
2022/06/24 03:15:55;;;;;;;8.47;3.73;;;;;;;15.50;100.00;98036.66;4954578;28;20321;-49
2022/06/24 03:18:24;;;;;;;10.60;3.43;;;;;;;15.46;100.00;98030.16;4954049;28;20215;-48
2022/06/24 03:20:51;;;;;;;19.83;3.57;;;;;;;15.49;100.00;98027.16;4954976;29;20199;-48
2022/06/24 03:23:18;;;;;;;11.27;3.40;;;;;;;15.52;100.00;98021.50;4962542;28;20249;-48
2022/06/24 03:25:45;;;;;;;9.47;3.40;;;;;;;15.57;100.00;98019.06;4955207;29;20218;-49
2022/06/24 03:28:12;;;;;;;8.20;3.77;;;;;;;15.57;100.00;98032.22;4954426;28;20214;-49
2022/06/24 03:30:39;;;;;;;11.00;3.60;;;;;;;15.63;100.00;98020.91;4954920;29;20295;-48
2022/06/24 03:33:07;;;;;;;8.90;3.67;;;;;;;15.62;100.00;98018.50;4937549;28;20314;-49
2022/06/24 03:35:35;;;;;;;8.70;4.03;;;;;;;15.63;100.00;98026.19;4954474;28;20201;-49
2022/06/24 03:38:03;;;;;;;12.07;3.63;;;;;;;15.68;100.00;98015.06;4954138;28;20233;-49
2022/06/24 03:40:48;;;;;;;11.17;4.00;;;;;;;15.71;100.00;98022.56;4954710;28;20207;-49
2022/06/24 03:43:15;;;;;;;12.00;3.50;;;;;;;15.75;100.00;98010.63;4954099;28;20202;-49
2022/06/24 03:45:41;;;;;;;12.50;4.13;;;;;;;15.83;100.00;98009.63;4954434;29;20205;-48
2022/06/24 03:48:09;;;;;;;7.67;4.30;;;;;;;15.90;100.00;98005.22;4953791;28;20293;-49
2022/06/24 03:50:38;;;;;;;8.90;3.70;;;;;;;16.01;100.00;98003.81;4954157;28;20199;-49
2022/06/24 03:53:05;;;;;;;11.13;4.50;;;;;;;16.13;100.00;98004.03;4953929;29;20203;-48
2022/06/24 03:55:32;;;;;;;8.90;4.00;;;;;;;16.31;100.00;98005.25;4936788;29;20237;-49
2022/06/24 03:57:59;;;;;;;8.53;3.60;;;;;;;16.47;100.00;97996.09;4953822;28;20886;-49
2022/06/24 04:00:26;;;;;;;13.27;4.50;;;;;;;16.76;100.00;98009.84;4946207;28;20217;-49
2022/06/24 04:02:53;;;;;;;11.67;4.07;;;;;;;16.90;100.00;98003.53;4954017;28;20556;-49
2022/06/24 04:05:20;;;;;;;12.10;4.07;;;;;;;17.09;100.00;98001.06;4953677;29;20346;-49
2022/06/24 04:07:48;;;;;;;9.37;3.87;;;;;;;17.24;100.00;98012.16;4953615;28;20209;-49
2022/06/24 04:10:15;;;;;;;6.97;3.70;;;;;;;17.34;100.00;98005.63;4949128;28;20211;-48
2022/06/24 04:12:42;;;;;;;8.87;3.80;;;;;;;17.47;100.00;98013.47;4936029;29;20625;-49
2022/06/24 04:15:17;;;;;;;8.67;3.67;;;;;;;17.57;100.00;98013.00;4953855;29;20204;-49
2022/06/24 04:17:45;;;;;;;10.40;3.90;;;;;;;17.67;100.00;98021.28;4952955;28;20222;-48
2022/06/24 04:20:14;;;;;;;12.73;3.70;;;;;;;17.71;100.00;98022.47;4935412;29;20299;-48
2022/06/24 04:22:41;;;;;;;14.37;4.00;;;;;;;17.80;100.00;98024.88;4961928;28;20256;-49
2022/06/24 04:25:11;;;;;;;8.73;4.03;;;;;;;17.89;100.00;98043.91;4953792;29;20595;-49
2022/06/24 04:27:38;;;;;;;12.17;4.43;;;;;;;17.83;100.00;98058.75;4953404;28;20271;-48
2022/06/24 04:30:07;;;;;;;12.93;4.30;;;;;;;17.70;100.00;98064.94;4953951;29;20252;-49
2022/06/24 04:32:35;;;;;;;13.40;4.97;;;;;;;17.70;100.00;98049.09;4953884;29;20718;-49
2022/06/24 04:35:02;;;;;;;13.10;5.07;;;;;;;17.62;100.00;98054.63;4953791;29;20193;-49
2022/06/24 04:37:29;;;;;;;14.33;5.30;;;;;;;17.55;100.00;98057.28;4936239;29;20256;-49
2022/06/24 04:39:57;;;;;;;11.57;4.47;;;;;;;17.46;100.00;98056.72;4953878;29;20740;-49
2022/06/24 04:42:26;;;;;;;16.97;5.47;;;;;;;17.44;100.00;98056.09;4953665;29;20197;-49
2022/06/24 04:44:54;;;;;;;13.10;4.97;;;;;;;17.36;100.00;98043.97;4954490;29;20276;-49
2022/06/24 04:47:22;;;;;;;10.43;4.90;;;;;;;17.33;100.00;98054.13;4953234;28;20217;-49
2022/06/24 04:49:49;;;;;;;8.60;5.13;;;;;;;17.29;100.00;98045.00;4953170;29;20202;-49
2022/06/24 04:52:35;;;;;;;12.03;5.20;;;;;;;17.33;100.00;98054.13;4943508;28;20811;-49
2022/06/24 04:55:03;;;;;;;14.90;5.53;;;;;;;17.34;100.00;98053.94;4936106;29;20670;-49
2022/06/24 04:57:31;;;;;;;9.70;5.47;;;;;;;17.48;100.00;98052.03;4935549;29;20221;-49
2022/06/24 04:59:59;;;;;;;13.40;5.90;;;;;;;17.58;100.00;98069.25;4953229;28;20205;-49
2022/06/24 05:02:25;;;;;;;9.90;6.43;;;;;;;17.61;100.00;98058.28;4952956;29;20204;-49
2022/06/24 05:04:53;;;;;;;12.67;6.20;;;;;;;17.72;100.00;98062.88;4953002;29;20198;-49
2022/06/24 05:07:19;;;;;;;16.27;7.07;;;;;;;17.66;100.00;98059.25;4952852;28;20268;-49
2022/06/24 05:09:47;;;;;;;12.57;6.97;;;;;;;17.63;100.00;98050.97;4950351;28;20548;-49
2022/06/24 05:12:14;;;;;;;12.20;6.60;;;;;;;17.72;100.00;98054.97;4951238;28;20325;-49
2022/06/24 05:14:42;;;;;;;15.87;7.17;;;;;;;17.69;100.00;98048.28;4952847;28;20198;-49
2022/06/24 05:17:09;;;;;;;14.03;7.67;;;;;;;17.65;100.00;98046.28;4952750;28;20218;-48
2022/06/24 05:19:36;;;;;;;16.80;8.00;;;;;;;17.64;100.00;98053.38;4951773;28;20283;-49
2022/06/24 05:22:03;;;;;;;13.30;7.43;;;;;;;17.60;100.00;98049.53;4935516;28;20229;-49
2022/06/24 05:24:30;;;;;;;14.70;8.00;;;;;;;17.58;100.00;98037.59;4955857;28;20193;-49
2022/06/24 05:26:57;;;;;;;16.73;8.63;;;;;;;17.47;100.00;98039.06;4955790;28;20297;-49
2022/06/24 05:29:24;;;;;;;12.27;7.30;;;;;;;17.49;100.00;98044.94;4955520;28;20220;-49
2022/06/24 05:31:52;;;;;;;13.47;7.40;;;;;;;17.57;100.00;98039.41;4956032;28;20342;-49
2022/06/24 05:34:19;;;;;;;16.67;7.00;;;;;;;17.58;100.00;98048.94;4955725;28;20205;-49
2022/06/24 05:36:46;;;;;;;13.70;7.43;;;;;;;17.69;100.00;98040.34;4955420;28;20208;-49
2022/06/24 05:39:14;;;;;;;10.73;6.47;;;;;;;17.84;100.00;98041.91;4955476;28;20203;-49
2022/06/24 05:41:43;;;;;;;13.77;6.60;;;;;;;18.06;100.00;98044.22;4955617;28;20192;-49
2022/06/24 05:44:10;;;;;;;9.27;5.20;;;;;;;18.31;100.00;98048.75;4955557;28;20199;-49
2022/06/24 05:46:38;;;;;;;11.90;5.53;;;;;;;18.63;100.00;98046.81;4955409;28;20299;-49
2022/06/24 05:49:07;;;;;;;10.23;4.53;;;;;;;18.85;100.00;98038.50;4955705;28;20601;-49
2022/06/24 05:51:35;;;;;;;11.43;4.37;;;;;;;19.09;98.21;98042.13;4955457;28;20225;-49
2022/06/24 05:56:47;;;;;;;10.07;4.03;;;;;;;19.73;94.54;98038.28;4955140;28;20209;-49
2022/06/24 05:59:14;;;;;;;10.17;4.20;;;;;;;19.79;95.65;98039.22;4955392;28;20566;-49
2022/06/24 06:01:42;;;;;;;11.30;3.60;;;;;;;19.87;91.89;98029.13;4955951;28;20188;-49
2022/06/24 06:04:10;;;;;;;9.43;3.80;;;;;;;20.11;92.49;98025.75;4955115;28;20676;-49
2022/06/24 06:06:37;;;;;;;9.37;3.10;;;;;;;20.23;88.14;98036.34;4955498;28;20292;-50
2022/06/24 06:09:04;;;;;;;8.07;3.40;;;;;;;20.52;87.16;98032.03;4955965;28;20677;-49
2022/06/24 06:11:50;;;;;;;9.53;3.17;;;;;;;20.55;86.34;98031.56;4956001;29;20291;-49
2022/06/24 06:14:17;;;;;;;10.40;3.73;;;;;;;20.74;83.74;98039.38;4955775;28;20207;-49
2022/06/24 06:16:46;;;;;;;6.97;2.80;;;;;;;20.77;84.81;98037.13;4954943;28;20214;-49
2022/06/24 06:19:15;;;;;;;9.63;2.93;;;;;;;20.82;86.27;98043.56;4953197;28;20193;-49
2022/06/24 06:21:44;;;;;;;9.27;3.07;;;;;;;21.01;85.91;98055.66;4954454;28;20200;-49
2022/06/24 06:24:12;;;;;;;11.50;3.40;;;;;;;20.97;87.83;98049.22;4955666;28;20283;-49
2022/06/24 06:26:39;;;;;;;8.83;3.00;;;;;;;20.83;83.64;98047.84;4955034;28;20207;-50
2022/06/24 06:29:06;;;;;;;10.10;2.90;;;;;;;20.83;85.44;98053.94;4955499;28;20202;-49
2022/06/24 06:31:33;;;;;;;7.77;2.80;;;;;;;20.99;86.41;98059.56;4955373;28;20199;-49
2022/06/24 06:34:00;;;;;;;9.87;2.60;;;;;;;20.98;82.69;98060.63;4954931;28;20187;-49
2022/06/24 06:36:29;;;;;;;7.63;2.50;;;;;;;20.89;83.70;98060.97;4946833;28;20223;-49
2022/06/24 06:38:56;;;;;;;9.93;2.77;;;;;;;21.02;84.21;98065.25;4955289;28;20206;-49
2022/06/24 06:41:41;;;;;;;5.77;2.77;;;;;;;20.96;84.79;98057.38;4949065;28;20207;-49
2022/06/24 06:44:08;;;;;;;10.23;3.00;;;;;;;20.90;83.43;98061.78;4955234;28;20592;-49
2022/06/24 06:46:36;;;;;;;5.87;2.10;;;;;;;20.99;82.48;98067.53;4954881;28;20705;-49
2022/06/24 06:49:03;;;;;;;5.73;2.73;;;;;;;21.07;83.36;98059.22;4954645;28;20206;-49
2022/06/24 06:51:32;;;;;;;8.43;2.83;;;;;;;21.22;84.29;98070.16;4937938;29;20202;-49
2022/06/24 06:53:59;;;;;;;5.63;2.97;;;;;;;21.36;84.60;98069.91;4954697;28;20202;-49
2022/06/24 06:56:25;;;;;;;9.47;2.30;;;;;;;21.52;83.51;98074.47;4954172;28;20215;-50
2022/06/24 06:58:52;;;;;;;7.93;2.40;;;;;;;21.73;79.83;98080.19;4954571;28;20653;-49
2022/06/24 07:01:19;;;;;;;6.67;2.50;;;;;;;21.74;80.83;98081.81;4954659;28;20192;-50
2022/06/24 07:03:46;;;;;;;4.13;2.10;;;;;;;21.82;77.51;98086.72;4954282;28;20659;-49
2022/06/24 07:06:12;;;;;;;3.40;2.00;;;;;;;21.92;78.69;98088.78;4953796;28;20248;-49
2022/06/24 07:08:41;;;;;;;4.27;2.10;;;;;;;21.81;72.57;98086.97;4954472;29;20191;-49
2022/06/24 07:11:07;;;;;;;10.23;2.50;;;;;;;21.88;74.47;98085.00;4954667;28;20204;-49
2022/06/24 07:13:34;;;;;;;10.37;2.50;;;;;;;22.03;76.74;98078.34;4954364;29;20198;-49
2022/06/24 07:16:01;;;;;;;9.23;2.30;;;;;;;22.12;77.75;98068.94;4954412;28;20211;-49
2022/06/24 07:18:28;;;;;;;10.93;2.50;;;;;;;22.25;74.40;98068.63;4954047;29;20285;-49
2022/06/24 07:20:55;;;;;;;3.63;2.03;;;;;;;22.04;74.18;98066.66;4948065;28;20632;-49
2022/06/24 07:23:22;;;;;;;4.30;1.80;;;;;;;22.37;69.99;98063.22;4948998;28;20216;-50
2022/06/24 07:25:51;;;;;;;10.10;2.07;;;;;;;22.56;69.82;98066.47;4954378;29;20207;-49
2022/06/24 07:28:17;;;;;;;7.53;2.30;;;;;;;22.62;70.58;98072.69;4952803;28;20191;-50
2022/06/24 07:30:44;;;;;;;8.33;2.50;;;;;;;22.73;72.22;98065.63;4953485;29;20279;-49
2022/06/24 07:33:11;;;;;;;7.93;2.23;;;;;;;22.87;73.04;98065.31;4946271;28;20205;-49
2022/06/24 07:35:37;;;;;;;6.43;2.27;;;;;;;22.83;71.95;98067.63;4947363;28;20188;-49
2022/06/24 07:38:05;;;;;;;6.70;3.27;;;;;;;22.48;70.64;98063.41;4947478;28;20214;-49
2022/06/24 07:40:32;;;;;;;4.27;2.00;;;;;;;22.54;72.08;98067.75;4948145;28;20208;-49
2022/06/24 07:43:00;;;;;;;5.53;2.40;;;;;;;22.71;70.76;98070.41;4947728;28;20197;-49
2022/06/24 07:45:26;;;;;;;5.90;2.37;;;;;;;22.96;67.57;98067.28;4948111;28;20203;-49
2022/06/24 07:47:53;;;;;;;9.07;2.23;;;;;;;22.78;69.13;98064.94;4949094;29;20221;-48
2022/06/24 07:50:21;;;;;;;9.60;2.33;;;;;;;22.75;71.37;98066.22;4954541;29;20205;-49
2022/06/24 07:52:48;;;;;;;5.70;3.07;;;;;;;23.05;69.73;98062.34;4953912;28;20198;-51
2022/06/24 07:58:01;;;;;;;5.63;2.13;;;;;;;23.02;63.70;98054.88;4953083;28;20217;-51
2022/06/24 08:00:28;;;;;;;6.53;1.70;;;;;;;22.70;67.31;98051.00;4945999;29;20202;-51
2022/06/24 08:02:55;;;;;;;3.17;1.77;;;;;;;22.68;68.70;98055.75;4953720;28;20192;-50
2022/06/24 08:05:23;;;;;;;9.30;2.20;;;;;;;22.79;66.81;98048.69;4953691;28;20288;-49
2022/06/24 08:07:50;;;;;;;5.17;2.20;;;;;;;22.70;67.78;98044.84;4948510;29;20699;-48
2022/06/24 08:10:17;;;;;;;5.67;1.87;;;;;;;22.63;67.60;98044.22;4947984;28;20207;-50
2022/06/24 08:12:44;;;;;;;6.60;3.23;;;;;;;22.61;67.63;98039.16;4953481;29;20189;-49
2022/06/24 08:15:14;;;;;;;7.00;2.13;;;;;;;22.58;65.16;98033.50;4953262;28;20195;-50
2022/06/24 08:17:41;;;;;;;3.50;1.73;;;;;;;22.44;64.95;98030.34;4935471;29;20221;-49
2022/06/24 08:20:10;;;;;;;7.97;2.20;;;;;;;22.31;69.45;98023.50;4953326;28;20197;-49
2022/06/24 08:22:37;;;;;;;5.77;1.73;;;;;;;22.45;68.08;98024.81;4949734;29;20213;-49
2022/06/24 08:25:04;;;;;;;7.73;1.90;;;;;;;22.42;65.70;98012.78;4951358;28;20334;-49
2022/06/24 08:27:32;;;;;;;4.50;2.20;;;;;;;22.45;67.86;98010.72;4935945;29;20217;-50
2022/06/24 08:29:59;;;;;;;4.30;1.97;;;;;;;22.42;67.13;98003.97;4934849;29;20292;-49
2022/06/24 08:32:27;;;;;;;6.33;1.90;;;;;;;22.56;67.25;98012.47;4945472;28;20660;-49
2022/06/24 08:35:13;;;;;;;3.30;1.50;;;;;;;22.95;65.56;98020.44;4947569;28;20314;-48
2022/06/24 08:37:40;;;;;;;3.53;1.43;;;;;;;23.01;64.57;98005.34;4929393;29;20222;-49
2022/06/24 08:40:09;;;;;;;9.00;1.80;;;;;;;23.19;64.12;98008.75;4930633;28;20292;-48
2022/06/24 08:42:37;;;;;;;2.87;1.37;;;;;;;23.02;63.63;97998.97;4947569;28;20201;-49
2022/06/24 08:45:05;;;;;;;3.63;1.53;;;;;;;23.48;62.83;98011.22;4945872;28;20581;-50
2022/06/24 08:47:35;;;;;;;3.60;1.50;;;;;;;23.74;60.42;98005.09;4911425;29;20316;-49
2022/06/24 08:50:21;;;;;;;4.70;1.50;;;;;;;23.81;62.00;98009.41;4948544;28;20201;-50
2022/06/24 08:52:50;;;;;;;3.57;2.00;;;;;;;24.23;62.37;98014.06;4957949;28;20319;-49
2022/06/24 08:55:18;;;;;;;3.43;1.50;;;;;;;24.38;58.15;98017.91;4947341;29;20791;-50
2022/06/24 08:57:45;;;;;;;5.87;1.90;;;;;;;24.06;59.32;98016.06;4945772;28;20218;-50
2022/06/24 09:00:13;;;;;;;8.20;1.60;;;;;;;24.09;60.94;98012.88;4950641;28;20224;-48
2022/06/24 09:02:42;;;;;;;5.55;1.75;;;;;;;24.06;60.71;98016.84;4958799;28;20444;-50
2022/06/24 09:05:10;;;;;;;7.50;2.27;;;;;;;24.06;61.58;98010.72;4948505;28;20229;-52
2022/06/24 09:07:37;;;;;;;5.77;1.60;;;;;;;23.85;60.52;98018.50;4949871;28;20206;-51
2022/06/24 09:10:10;;;;;;;4.87;1.93;;;;;;;23.23;63.35;98013.34;4953116;28;20286;-50
2022/06/24 09:12:38;;;;;;;3.87;1.53;;;;;;;23.70;60.07;98005.84;4950522;29;20198;-50
2022/06/24 09:15:07;;;;;;;6.77;1.73;;;;;;;24.02;59.21;98011.22;4950417;28;20279;-50
2022/06/24 09:17:34;;;;;;;2.67;1.63;;;;;;;23.90;61.57;98021.22;4952931;28;20224;-50
2022/06/24 09:20:11;;;;;;;5.17;1.63;;;;;;;24.09;59.78;98008.34;4949002;29;20254;-50
2022/06/24 09:22:39;;;;;;;7.03;1.97;;;;;;;24.17;60.53;98002.53;4948939;28;20573;-50
2022/06/24 09:25:07;;;;;;;6.30;1.70;;;;;;;24.27;57.55;98006.34;4948330;28;20212;-49
2022/06/24 09:27:35;;;;;;;3.17;1.33;;;;;;;23.63;60.00;98019.38;4949029;28;20211;-49
2022/06/24 09:30:02;;;;;;;5.43;1.40;;;;;;;23.31;61.38;98019.28;4948813;28;20202;-51
2022/06/24 09:32:29;;;;;;;1.97;1.20;;;;;;;23.11;61.89;98021.44;4949267;28;20190;-50
2022/06/24 09:35:07;;;;;;;4.73;1.33;;;;;;;23.36;60.65;98020.13;4947681;28;20198;-50
2022/06/24 09:37:37;;;;;;;3.37;1.30;;;;;;;23.49;58.80;98013.63;4949573;28;20650;-50
2022/06/24 09:40:16;;;;;;;4.97;1.13;;;;;;;23.56;56.66;98002.78;4948361;28;20284;-51
2022/06/24 09:42:43;;;;;;;4.17;1.07;;;;;;;23.89;54.96;98012.41;4948764;28;20257;-51
2022/06/24 09:45:11;;;;;;;1.83;0.80;;;;;;;23.65;54.22;98014.59;4949102;28;20223;-51
2022/06/24 09:47:39;;;;;;;2.57;1.07;;;;;;;23.95;50.43;98009.78;4948967;28;20218;-50
2022/06/24 09:50:07;;;;;;;2.90;1.40;;;;;;;23.93;55.34;98012.72;4949904;28;20209;-50
2022/06/24 09:52:37;;;;;;;2.10;1.10;;;;;;;24.29;56.67;98007.72;4950225;28;20216;-50
2022/06/24 09:55:04;;;;;;;2.50;1.10;;;;;;;24.58;55.34;98011.88;4948774;28;20280;-52
2022/06/24 09:57:32;;;;;;;3.90;1.20;;;;;;;24.73;51.97;98021.88;4950205;28;20213;-50
2022/06/24 10:03:22;;;;;;;5.40;0.90;;;;;;;24.60;53.21;98020.44;4953337;28;20745;-50
2022/06/24 10:05:51;;;;;;;4.03;0.90;;;;;;;24.92;48.86;98008.88;4951240;28;20206;-51
2022/06/24 10:08:20;;;;;;;2.80;0.90;;;;;;;24.70;46.36;97988.47;4948354;28;20248;-50
2022/06/24 10:10:49;;;;;;;4.30;1.40;;;;;;;24.47;52.11;97984.31;4925777;29;20257;-50
2022/06/24 10:13:25;;;;;;;3.70;1.27;;;;;;;24.27;50.90;97996.50;4948445;28;20299;-50
2022/06/24 10:15:52;;;;;;;4.80;1.00;;;;;;;24.17;52.62;98007.88;4947523;28;20209;-50
2022/06/24 10:18:22;;;;;;;2.60;0.90;;;;;;;24.20;51.85;98011.09;4951029;28;20590;-50
2022/06/24 10:21:09;;;;;;;4.20;1.07;;;;;;;24.13;51.41;98005.97;4949169;28;20579;-50
2022/06/24 10:23:42;;;;;;;3.70;1.13;;;;;;;24.28;51.17;98011.44;4946610;28;20203;-50
2022/06/24 10:26:13;;;;;;;2.27;1.10;;;;;;;24.39;52.53;98011.47;4929872;28;20659;-51
2022/06/24 10:29:22;;;;;;;2.90;1.03;;;;;;;24.76;51.08;98010.66;4949204;28;20194;-50
2022/06/24 10:31:54;;;;;;;3.67;1.10;;;;;;;25.13;50.50;98017.78;4950235;28;20203;-50
2022/06/24 10:34:40;;;;;;;4.30;1.27;;;;;;;25.62;48.03;98019.28;4930434;29;20201;-51
2022/06/24 10:37:25;;;;;;;3.53;1.13;;;;;;;25.68;45.84;98022.75;4932300;28;21011;-50
2022/06/24 10:39:54;;;;;;;2.80;1.00;;;;;;;25.94;46.48;98007.56;4948057;29;20295;-52
2022/06/24 10:42:23;;;;;;;4.40;1.10;;;;;;;26.14;46.41;98008.63;4952118;28;20225;-53
2022/06/24 10:45:08;;;;;;;2.33;1.30;;;;;;;25.90;49.30;98000.34;4935834;28;20196;-52
2022/06/24 10:47:40;;;;;;;2.78;1.25;;;;;;;25.99;48.18;98012.09;4950056;28;20534;-51
2022/06/24 10:50:20;;;;;;;2.83;1.10;;;;;;;26.35;49.11;98009.44;4948594;28;20204;-49
2022/06/24 10:53:00;;;;;;;1.60;1.00;;;;;;;26.57;47.02;98008.31;4955924;28;20196;-49
2022/06/24 10:55:42;;;;;;;4.67;1.23;;;;;;;26.49;48.07;98004.31;4943656;28;20216;-49
2022/06/24 10:58:12;;;;;;;4.77;1.30;;;;;;;26.26;48.40;98003.03;4955447;28;20235;-51
2022/06/24 11:00:51;;;;;;;3.93;1.10;;;;;;;26.66;47.62;98008.56;4955462;29;20188;-49
2022/06/24 11:03:39;;;;;;;2.25;0.93;;;;;;;26.93;46.86;98004.78;4948517;28;20228;-49
2022/06/24 11:06:09;;;;;;;3.33;1.40;;;;;;;27.06;45.13;97995.34;4954753;28;20311;-49
2022/06/24 11:08:38;;;;;;;3.43;1.60;;;;;;;26.93;47.45;97996.75;4953727;28;20705;-49
2022/06/24 11:11:06;;;;;;;5.77;1.20;;;;;;;27.19;44.94;97994.75;4954353;28;20281;-49
2022/06/24 11:13:34;;;;;;;5.27;1.40;;;;;;;27.38;44.48;97984.19;4954004;28;20233;-49
2022/06/24 11:16:01;;;;;;;4.27;1.20;;;;;;;27.47;43.83;97995.13;4953415;28;20251;-49
2022/06/24 11:18:29;;;;;;;3.40;0.90;;;;;;;27.37;46.54;97982.59;4953682;28;20239;-49
2022/06/24 11:20:59;;;;;;;1.63;1.20;;;;;;;27.17;49.44;97991.53;4966532;28;20209;-49
2022/06/24 11:23:28;;;;;;;2.10;1.30;;;;;;;27.11;46.58;97985.38;4972958;28;20227;-50
2022/06/24 11:26:00;;;;;;;2.00;1.00;;;;;;;26.76;48.18;97987.13;4954228;28;20279;-50
2022/06/24 11:28:30;;;;;;;4.68;1.40;;;;;;;26.66;45.32;97987.94;4927372;29;20207;-49
2022/06/24 11:31:14;;;;;;;1.70;1.42;;;;;;;26.46;47.08;97996.06;4918079;29;20221;-49
2022/06/24 11:33:42;;;;;;;2.10;1.17;;;;;;;26.47;48.42;97993.09;4935087;29;20189;-51
2022/06/24 11:36:09;;;;;;;4.73;1.07;;;;;;;26.44;48.32;97998.97;4934719;29;20608;-49
2022/06/24 11:38:48;;;;;;;3.73;0.93;;;;;;;26.60;47.83;97991.72;4917123;29;20215;-49
2022/06/24 11:41:27;;;;;;;4.97;1.40;;;;;;;26.77;44.23;97990.59;4935090;29;20261;-50
2022/06/24 11:43:56;;;;;;;3.77;1.17;;;;;;;27.19;44.34;97991.25;4930910;28;20716;-49
2022/06/24 11:46:23;;;;;;;3.10;1.40;;;;;;;27.89;45.23;97995.69;4953703;28;20220;-50
2022/06/24 11:49:06;;;;;;;2.65;1.10;;;;;;;28.28;42.74;97988.66;4954349;28;20193;-49